createdAt,value
2023-04-09T00:01:59.446Z,0.58
2023-04-09T00:04:25.944Z,0.55
2023-04-09T00:06:52.257Z,0.48
2023-04-09T00:09:18.587Z,0.43
2023-04-09T00:11:44.862Z,0.39
2023-04-09T00:14:19.267Z,0.38
2023-04-09T00:16:45.931Z,0.32
2023-04-09T00:19:12.783Z,0.27
2023-04-09T00:21:39.063Z,0.15
2023-04-09T00:24:05.632Z,0.03
2023-04-09T00:26:31.927Z,0.06
2023-04-09T00:28:58.258Z,0.13
2023-04-09T00:31:24.680Z,0.12
2023-04-09T00:33:51.183Z,0.24
2023-04-09T00:36:18.541Z,0.42
2023-04-09T00:38:45.473Z,0.43
2023-04-09T00:41:12.029Z,0.38
2023-04-09T00:43:38.335Z,0.45
2023-04-09T00:46:04.704Z,0.39
2023-04-09T00:48:31.228Z,0.73
2023-04-09T00:50:57.563Z,0.63
2023-04-09T00:53:23.901Z,0.63
2023-04-09T00:55:50.314Z,0.79
2023-04-09T00:58:17.077Z,0.82
2023-04-09T01:00:48.479Z,0.80
2023-04-09T01:03:14.865Z,0.87
2023-04-09T01:05:41.370Z,0.97
2023-04-09T01:08:16.758Z,1.12
2023-04-09T01:10:47.111Z,1.01
2023-04-09T01:13:19.829Z,1.17
2023-04-09T01:15:53.595Z,1.13
2023-04-09T01:18:38.466Z,1.13
2023-04-09T01:21:10.890Z,1.12
2023-04-09T01:23:40.948Z,1.14
2023-04-09T01:26:10.721Z,1.16
2023-04-09T01:28:39.409Z,1.15
2023-04-09T01:31:17.096Z,1.20
2023-04-09T01:33:44.069Z,1.23
2023-04-09T01:36:10.960Z,1.28
2023-04-09T01:38:39.599Z,1.31
2023-04-09T01:41:06.685Z,1.28
2023-04-09T01:43:33.650Z,1.31
2023-04-09T01:46:03.740Z,1.49
2023-04-09T01:48:31.131Z,1.56
2023-04-09T01:50:58.466Z,1.50
2023-04-09T01:53:28.267Z,1.63
2023-04-09T01:55:56.089Z,1.49
2023-04-09T01:58:22.866Z,1.39
2023-04-09T02:00:49.386Z,1.40
2023-04-09T02:03:18.053Z,1.58
2023-04-09T02:05:46.330Z,1.56
2023-04-09T02:08:15.664Z,1.52
2023-04-09T02:10:44.761Z,1.58
2023-04-09T02:13:11.536Z,1.56
2023-04-09T02:15:39.203Z,1.46
2023-04-09T02:18:05.552Z,1.52
2023-04-09T02:20:31.885Z,1.56
2023-04-09T02:22:58.159Z,1.58
2023-04-09T02:25:24.988Z,1.63
2023-04-09T02:27:51.293Z,1.69
2023-04-09T02:30:17.592Z,1.83
2023-04-09T02:32:43.990Z,1.95
2023-04-09T02:35:10.417Z,1.85
2023-04-09T02:37:36.785Z,1.89
2023-04-09T02:40:04.458Z,1.89
2023-04-09T02:42:30.739Z,1.99
2023-04-09T02:44:57.020Z,1.92
2023-04-09T02:47:23.315Z,1.92
2023-04-09T02:49:49.614Z,1.96
2023-04-09T02:52:15.937Z,2.09
2023-04-09T02:54:42.221Z,1.99
2023-04-09T02:57:08.527Z,2.11
2023-04-09T02:59:35.774Z,2.06
2023-04-09T03:02:02.291Z,1.97
2023-04-09T03:04:28.625Z,1.85
2023-04-09T03:06:54.950Z,1.88
2023-04-09T03:09:21.262Z,1.95
2023-04-09T03:11:47.656Z,1.81
2023-04-09T03:14:13.970Z,1.80
2023-04-09T03:16:40.261Z,1.79
2023-04-09T03:19:06.571Z,1.78
2023-04-09T03:21:33.137Z,1.82
2023-04-09T03:23:59.441Z,1.85
2023-04-09T03:26:25.754Z,1.87
2023-04-09T03:28:52.269Z,1.91
2023-04-09T03:31:19.067Z,1.94
2023-04-09T03:33:45.423Z,2.02
2023-04-09T03:36:11.748Z,2.06
2023-04-09T03:38:38.082Z,2.14
2023-04-09T03:41:04.462Z,2.15
2023-04-09T03:43:31.038Z,2.28
2023-04-09T03:45:57.340Z,2.32
2023-04-09T03:48:23.678Z,2.28
2023-04-09T03:50:50.057Z,2.18
2023-04-09T03:53:16.384Z,2.19
2023-04-09T03:55:42.716Z,2.19
2023-04-09T03:58:09.023Z,2.19
2023-04-09T04:00:35.414Z,2.22
2023-04-09T04:03:02.071Z,2.26
2023-04-09T04:05:31.528Z,2.28
2023-04-09T04:07:58.809Z,2.30
2023-04-09T04:10:25.332Z,2.32
2023-04-09T04:12:51.709Z,2.36
2023-04-09T04:15:20.054Z,2.41
2023-04-09T04:17:46.457Z,2.43
2023-04-09T04:20:12.876Z,2.47
2023-04-09T04:22:39.185Z,2.48
2023-04-09T04:25:05.816Z,2.48
2023-04-09T04:27:32.142Z,2.50
2023-04-09T04:29:58.925Z,2.41
2023-04-09T04:32:25.573Z,2.50
2023-04-09T04:34:51.918Z,2.49
2023-04-09T04:37:18.311Z,2.49
2023-04-09T04:39:44.675Z,2.52
2023-04-09T04:42:11.006Z,2.51
2023-04-09T04:44:37.303Z,2.52
2023-04-09T04:47:03.595Z,2.54
2023-04-09T04:49:30.376Z,2.51
2023-04-09T04:51:56.928Z,2.36
2023-04-09T04:54:23.242Z,2.31
2023-04-09T04:56:49.584Z,2.35
2023-04-09T04:59:15.878Z,2.24
2023-04-09T05:01:42.223Z,2.23
2023-04-09T05:04:08.750Z,2.10
2023-04-09T05:06:35.036Z,2.00
2023-04-09T05:09:01.573Z,1.97
2023-04-09T05:11:28.114Z,1.89
2023-04-09T05:13:54.405Z,1.79
2023-04-09T05:16:20.890Z,1.74
2023-04-09T05:18:47.478Z,1.68
2023-04-09T05:21:13.758Z,1.56
2023-04-09T05:23:40.049Z,1.49
2023-04-09T05:26:06.496Z,1.44
2023-04-09T05:28:32.786Z,1.42
2023-04-09T05:30:59.146Z,1.44
2023-04-09T05:33:25.461Z,1.40
2023-04-09T05:35:52.795Z,1.40
2023-04-09T05:38:19.123Z,1.43
2023-04-09T05:40:45.791Z,1.48
2023-04-09T05:43:12.121Z,1.52
2023-04-09T05:45:38.421Z,1.55
2023-04-09T05:48:04.902Z,1.57
2023-04-09T05:50:47.560Z,1.59
2023-04-09T05:53:20.317Z,1.62
2023-04-09T05:55:46.739Z,1.65
2023-04-09T05:58:13.133Z,1.71
2023-04-09T06:00:39.866Z,1.76
2023-04-09T06:03:06.274Z,1.80
2023-04-09T06:05:33.704Z,1.91
2023-04-09T06:08:04.138Z,1.96
2023-04-09T06:10:35.495Z,2.04
2023-04-09T06:13:01.891Z,2.05
2023-04-09T06:15:28.302Z,2.19
2023-04-09T06:17:55.604Z,2.25
2023-04-09T06:20:22.785Z,2.32
2023-04-09T06:22:49.078Z,2.38
2023-04-09T06:25:21.528Z,2.54
2023-04-09T06:27:47.843Z,2.59
2023-04-09T06:30:14.157Z,2.69
2023-04-09T06:32:53.159Z,2.71
2023-04-09T06:35:21.043Z,2.58
2023-04-09T06:37:47.321Z,2.64
2023-04-09T06:40:18.171Z,2.81
2023-04-09T06:42:45.477Z,2.73
2023-04-09T06:45:11.882Z,2.92
2023-04-09T06:47:38.235Z,2.99
2023-04-09T06:50:06.048Z,2.88
2023-04-09T06:52:32.338Z,2.89
2023-04-09T06:54:58.706Z,3.04
2023-04-09T06:57:29.135Z,3.09
2023-04-09T06:59:55.755Z,3.14
2023-04-09T07:02:22.327Z,3.21
2023-04-09T07:04:58.981Z,3.18
2023-04-09T07:07:25.865Z,3.26
2023-04-09T07:09:53.035Z,3.39
2023-04-09T07:12:29.248Z,3.35
2023-04-09T07:15:08.920Z,3.37
2023-04-09T07:17:35.640Z,3.53
2023-04-09T07:20:08.032Z,3.65
2023-04-09T07:22:36.701Z,3.94
2023-04-09T07:25:03.078Z,4.15
2023-04-09T07:27:29.378Z,4.33
2023-04-09T07:29:56.761Z,4.31
2023-04-09T07:32:23.544Z,4.33
2023-04-09T07:34:59.275Z,4.50
2023-04-09T07:37:27.094Z,4.50
2023-04-09T07:39:57.820Z,4.48
2023-04-09T07:42:24.221Z,4.32
2023-04-09T07:45:06.333Z,4.34
2023-04-09T07:50:10.608Z,4.25
2023-04-09T07:52:37.188Z,4.34
2023-04-09T07:55:04.720Z,4.37
2023-04-09T07:57:31.414Z,4.62
2023-04-09T07:59:58.359Z,4.70
2023-04-09T08:02:25.118Z,4.88
2023-04-09T08:04:51.891Z,4.79
2023-04-09T08:07:20.315Z,5.16
2023-04-09T08:09:47.085Z,4.71
2023-04-09T08:12:13.554Z,5.32
2023-04-09T08:14:39.907Z,5.52
2023-04-09T08:17:13.342Z,5.77
2023-04-09T08:19:41.930Z,5.81
2023-04-09T08:22:08.675Z,5.72
2023-04-09T08:24:35.562Z,5.85
2023-04-09T08:27:02.215Z,5.94
2023-04-09T08:29:28.546Z,5.81
2023-04-09T08:31:54.958Z,5.94
2023-04-09T08:34:22.091Z,5.95
2023-04-09T08:36:49.810Z,5.89
2023-04-09T08:39:20.077Z,6.12
2023-04-09T08:41:50.354Z,6.40
2023-04-09T08:44:17.952Z,6.38
2023-04-09T08:46:51.011Z,6.38
2023-04-09T08:49:17.431Z,6.32
2023-04-09T08:51:49.072Z,6.31
2023-04-09T08:54:18.754Z,6.40
2023-04-09T08:56:45.192Z,6.37
2023-04-09T08:59:11.537Z,6.50
2023-04-09T09:01:41.068Z,6.41
2023-04-09T09:04:09.573Z,6.69
2023-04-09T09:06:36.839Z,6.37
2023-04-09T09:09:04.205Z,6.58
2023-04-09T09:11:31.575Z,6.62
2023-04-09T09:13:59.032Z,6.58
2023-04-09T09:16:25.810Z,6.29
2023-04-09T09:18:53.392Z,6.30
2023-04-09T09:21:21.136Z,6.62
2023-04-09T09:23:49.605Z,6.78
2023-04-09T09:26:27.220Z,6.75
2023-04-09T09:29:00.475Z,6.62
2023-04-09T09:31:28.939Z,6.76
2023-04-09T09:33:56.565Z,6.77
2023-04-09T09:36:33.179Z,7.00
2023-04-09T09:39:03.096Z,6.99
2023-04-09T09:41:29.829Z,7.51
2023-04-09T09:43:56.818Z,7.58
2023-04-09T09:46:24.883Z,7.77
2023-04-09T09:48:51.471Z,8.01
2023-04-09T09:51:18.931Z,8.14
2023-04-09T09:53:46.598Z,8.14
2023-04-09T09:56:16.407Z,8.12
2023-04-09T09:59:07.989Z,7.91
2023-04-09T10:01:36.634Z,7.78
2023-04-09T10:04:05.654Z,7.78
2023-04-09T10:06:34.484Z,7.63
2023-04-09T10:09:04.176Z,8.00
2023-04-09T10:11:32.630Z,8.17
2023-04-09T10:13:59.383Z,7.88
2023-04-09T10:16:27.303Z,7.81
2023-04-09T10:19:03.446Z,8.09
2023-04-09T10:21:42.837Z,8.31
2023-04-09T10:24:27.704Z,8.60
2023-04-09T10:26:54.523Z,8.91
2023-04-09T10:29:27.855Z,9.13
2023-04-09T10:31:55.189Z,9.23
2023-04-09T10:34:23.385Z,9.47
2023-04-09T10:36:52.973Z,9.42
2023-04-09T10:39:31.963Z,9.48
2023-04-09T10:41:58.748Z,9.57
2023-04-09T10:44:32.170Z,9.53
2023-04-09T10:46:58.823Z,9.57
2023-04-09T10:49:26.428Z,9.75
2023-04-09T10:52:13.719Z,10.06
2023-04-09T10:54:45.353Z,10.12
2023-04-09T10:57:13.771Z,10.09
2023-04-09T11:00:00.338Z,10.00
2023-04-09T11:02:36.136Z,9.88
2023-04-09T11:05:02.578Z,10.10
2023-04-09T11:07:30.262Z,10.19
2023-04-09T11:09:56.543Z,10.41
2023-04-09T11:12:22.849Z,10.20
2023-04-09T11:14:49.123Z,10.01
2023-04-09T11:17:15.437Z,9.97
2023-04-09T11:19:44.732Z,10.18
2023-04-09T11:22:11.140Z,10.26
2023-04-09T11:24:44.424Z,10.32
2023-04-09T11:27:13.369Z,10.42
2023-04-09T11:29:43.813Z,9.98
2023-04-09T11:32:13.235Z,9.84
2023-04-09T11:34:39.716Z,9.48
2023-04-09T11:37:28.041Z,9.79
2023-04-09T11:39:58.362Z,10.25
2023-04-09T11:42:30.857Z,10.06
2023-04-09T11:44:59.803Z,9.73
2023-04-09T11:47:27.442Z,9.56
2023-04-09T11:49:54.017Z,9.72
2023-04-09T11:52:20.453Z,9.81
2023-04-09T11:54:50.399Z,10.05
2023-04-09T11:57:26.468Z,9.89
2023-04-09T11:59:53.087Z,9.96
2023-04-09T12:02:20.870Z,10.25
2023-04-09T12:04:55.812Z,10.24
2023-04-09T12:07:26.815Z,10.59
2023-04-09T12:09:53.816Z,10.76
2023-04-09T12:12:23.420Z,10.59
2023-04-09T12:14:58.898Z,10.89
2023-04-09T12:17:26.587Z,11.06
2023-04-09T12:20:09.867Z,11.04
2023-04-09T12:22:42.892Z,11.43
2023-04-09T12:25:19.311Z,11.15
2023-04-09T12:27:48.846Z,11.33
2023-04-09T12:30:34.261Z,11.51
2023-04-09T12:33:28.954Z,11.38
2023-04-09T12:36:00.362Z,11.11
2023-04-09T12:38:32.883Z,11.45
2023-04-09T12:41:02.898Z,10.84
2023-04-09T12:43:43.794Z,10.93
2023-04-09T12:46:11.541Z,11.54
2023-04-09T12:48:42.189Z,11.52
2023-04-09T12:51:14.024Z,11.45
2023-04-09T12:53:40.933Z,11.05
2023-04-09T12:56:10.288Z,11.26
2023-04-09T12:58:40.843Z,10.82
2023-04-09T13:01:10.653Z,10.77
2023-04-09T13:03:42.352Z,10.89
2023-04-09T13:06:14.130Z,10.98
2023-04-09T13:08:44.435Z,11.32
2023-04-09T13:11:10.967Z,11.06
2023-04-09T13:13:42.563Z,11.44
2023-04-09T13:16:23.867Z,11.65
2023-04-09T13:18:53.590Z,11.75
2023-04-09T13:21:21.672Z,11.41
2023-04-09T13:23:49.113Z,11.65
2023-04-09T13:26:21.523Z,11.64
2023-04-09T14:03:45.514Z,13.32
2023-04-09T14:06:13.539Z,13.47
2023-04-09T14:08:46.099Z,13.15
2023-04-09T14:11:15.110Z,13.13
2023-04-09T14:13:41.650Z,13.12
2023-04-09T14:16:08.285Z,12.42
2023-04-09T14:18:51.078Z,11.80
2023-04-09T14:21:18.385Z,11.96
2023-04-09T14:23:44.860Z,12.26
2023-04-09T14:26:11.228Z,12.23
2023-04-09T14:28:47.704Z,12.50
2023-04-09T14:31:14.376Z,12.18
2023-04-09T14:33:46.075Z,12.37
2023-04-09T16:21:24.595Z,11.78
2023-04-09T16:23:52.206Z,11.85
2023-04-09T16:26:18.578Z,11.82
2023-04-09T16:28:44.919Z,11.81
2023-04-09T16:31:11.228Z,11.79
2023-04-09T16:33:38.685Z,11.47
2023-04-09T16:36:05.272Z,11.02
2023-04-09T16:38:31.667Z,11.06
2023-04-09T16:40:58.073Z,10.70
2023-04-09T16:43:25.351Z,10.50
2023-04-09T16:45:57.131Z,10.42
2023-04-09T16:48:25.633Z,10.54
2023-04-09T16:50:54.094Z,10.69
2023-04-09T16:53:21.476Z,10.74
2023-04-09T16:55:51.866Z,10.75
2023-04-09T16:58:18.215Z,10.81
2023-04-09T17:00:52.155Z,10.60
2023-04-09T17:03:18.755Z,10.57
2023-04-09T17:05:49.263Z,10.45
2023-04-09T17:08:18.187Z,10.47
2023-04-09T17:10:44.781Z,10.37
2023-04-09T17:13:11.360Z,10.29
2023-04-09T17:15:37.719Z,9.97
2023-04-09T17:18:06.575Z,9.75
2023-04-09T17:20:32.921Z,9.58
2023-04-09T17:23:04.328Z,9.45
2023-04-09T17:25:30.703Z,9.43
2023-04-09T17:28:01.469Z,9.22
2023-04-09T17:30:40.054Z,9.16
2023-04-09T17:33:07.542Z,9.07
2023-04-09T17:35:43.386Z,9.02
2023-04-09T17:38:17.171Z,8.67
2023-04-09T17:40:43.513Z,8.69
2023-04-09T17:43:17.584Z,8.54
2023-04-09T17:45:54.228Z,8.35
2023-04-09T17:48:21.940Z,8.29
2023-04-09T17:50:49.980Z,8.31
2023-04-09T17:53:18.454Z,8.05
2023-04-09T17:55:50.950Z,8.00
2023-04-09T17:58:30.641Z,7.92
2023-04-09T18:00:59.491Z,7.78
2023-04-09T18:03:26.148Z,7.67
2023-04-09T18:05:56.159Z,7.49
2023-04-09T18:08:22.502Z,7.34
2023-04-09T18:11:08.875Z,7.21
2023-04-09T18:13:40.250Z,7.01
2023-04-09T18:16:08.706Z,6.97
2023-04-09T18:18:35.181Z,6.82
2023-04-09T18:21:01.492Z,6.62
2023-04-09T18:23:27.823Z,6.35
2023-04-09T18:25:54.151Z,6.23
2023-04-09T18:28:20.578Z,6.06
2023-04-09T18:30:46.862Z,5.85
2023-04-09T18:33:13.162Z,5.60
2023-04-09T18:35:39.509Z,5.58
2023-04-09T18:38:08.339Z,5.41
2023-04-09T18:40:40.611Z,5.18
2023-04-09T18:43:07.055Z,5.03
2023-04-09T18:45:33.372Z,4.89
2023-04-09T18:47:59.689Z,4.71
2023-04-09T18:50:28.017Z,4.57
2023-04-09T18:52:54.333Z,4.37
2023-04-09T18:55:20.651Z,4.26
2023-04-09T18:57:47.362Z,4.18
2023-04-09T19:00:13.965Z,4.01
2023-04-09T19:02:41.514Z,3.87
2023-04-09T19:05:09.344Z,3.75
2023-04-09T19:07:36.330Z,3.75
2023-04-09T19:10:02.683Z,3.63
2023-04-09T19:12:30.058Z,3.55
2023-04-09T19:14:56.405Z,3.59
2023-04-09T19:17:22.763Z,3.54
2023-04-09T19:19:49.244Z,3.56
2023-04-09T19:22:16.196Z,3.61
2023-04-09T19:24:46.504Z,3.63
2023-04-09T19:27:13.966Z,3.81
2023-04-09T19:29:42.394Z,3.75
2023-04-09T19:32:10.208Z,3.58
2023-04-09T19:34:48.831Z,3.52
2023-04-09T19:37:16.399Z,3.45
2023-04-09T19:39:42.682Z,3.28
2023-04-09T19:42:09.101Z,3.28
2023-04-09T19:44:36.386Z,3.18
2023-04-09T19:47:02.742Z,3.08
2023-04-09T19:49:29.326Z,3.05
2023-04-09T19:51:55.964Z,3.01
2023-04-09T19:54:23.341Z,3.05
2023-04-09T19:56:49.630Z,2.93
2023-04-09T19:59:16.957Z,2.99
2023-04-09T20:01:43.496Z,2.73
2023-04-09T20:04:09.905Z,2.78
2023-04-09T20:06:36.225Z,2.69
2023-04-09T20:09:02.560Z,2.64
2023-04-09T20:11:28.918Z,2.65
2023-04-09T20:13:56.703Z,2.54
2023-04-09T20:16:24.094Z,2.45
2023-04-09T20:18:50.540Z,2.50
2023-04-09T20:21:19.045Z,2.40
2023-04-09T20:23:46.468Z,2.37
2023-04-09T20:26:13.514Z,2.39
2023-04-09T20:28:40.277Z,2.42
2023-04-09T20:31:07.685Z,2.38
2023-04-09T20:33:34.266Z,2.49
2023-04-09T20:36:00.938Z,2.40
2023-04-09T20:38:28.299Z,2.58
2023-04-09T20:40:54.617Z,2.53
2023-04-09T20:43:21.338Z,2.53
2023-04-09T20:45:48.720Z,2.47
2023-04-09T20:48:24.172Z,2.48
2023-04-09T20:50:50.999Z,2.62
2023-04-09T20:53:17.897Z,2.80
2023-04-09T20:55:44.249Z,2.66
2023-04-09T20:58:29.028Z,2.55
2023-04-09T21:01:03.874Z,2.45
2023-04-09T21:03:30.944Z,2.49
2023-04-09T21:05:57.336Z,2.67
2023-04-09T21:08:23.635Z,2.48
2023-04-09T21:10:49.929Z,2.38
2023-04-09T21:13:16.557Z,2.43
2023-04-09T21:15:42.843Z,2.18
2023-04-09T21:18:09.138Z,2.06
2023-04-09T21:20:35.512Z,1.93
2023-04-09T21:23:01.818Z,1.87
2023-04-09T21:25:28.450Z,1.79
2023-04-09T21:28:06.934Z,1.72
2023-04-09T21:30:33.703Z,1.67
2023-04-09T21:33:02.089Z,1.65
2023-04-09T21:35:28.563Z,1.52
2023-04-09T21:37:54.850Z,1.62
2023-04-09T21:40:27.206Z,1.57
2023-04-09T21:42:54.568Z,1.59
2023-04-09T21:45:21.136Z,1.61
2023-04-09T21:47:47.523Z,1.55
2023-04-09T21:50:14.642Z,1.52
2023-04-09T21:52:41.727Z,1.42
2023-04-09T21:55:23.175Z,1.39
2023-04-09T21:57:49.497Z,1.32
2023-04-09T22:00:16.326Z,1.23
2023-04-09T22:02:42.809Z,1.19
2023-04-09T22:05:09.486Z,1.15
2023-04-09T22:07:37.213Z,1.22
2023-04-09T22:10:03.715Z,1.12
2023-04-09T22:12:30.013Z,1.08
2023-04-09T22:14:56.440Z,1.02
2023-04-09T22:17:28.690Z,0.96
2023-04-09T22:19:55.051Z,0.82
2023-04-09T22:22:21.621Z,0.69
2023-04-09T22:24:48.944Z,0.60
2023-04-09T22:27:15.227Z,0.51
2023-04-09T22:29:45.549Z,0.47
2023-04-09T22:32:12.489Z,0.42
2023-04-09T22:34:38.805Z,0.31
2023-04-09T22:37:05.079Z,0.25
2023-04-09T22:39:35.678Z,0.17
2023-04-09T22:42:02.022Z,0.19
2023-04-09T22:44:28.403Z,0.09
2023-04-09T22:46:55.264Z,0.03
2023-04-09T22:49:31.627Z,-0.04
2023-04-09T22:51:57.956Z,-0.12
2023-04-09T22:54:25.324Z,-0.11
2023-04-09T22:56:52.849Z,-0.19
2023-04-09T22:59:21.346Z,-0.19
2023-04-09T23:01:49.641Z,-0.27
2023-04-09T23:04:22.921Z,-0.29
2023-04-09T23:06:49.260Z,-0.37
2023-04-09T23:09:21.919Z,-0.32
2023-04-09T23:11:48.492Z,-0.28
2023-04-09T23:14:16.814Z,-0.34
2023-04-09T23:16:43.135Z,-0.33
2023-04-09T23:19:09.437Z,-0.29
2023-04-09T23:21:35.802Z,-0.26
2023-04-09T23:24:09.229Z,-0.26
2023-04-09T23:26:35.553Z,-0.29
2023-04-09T23:29:12.214Z,-0.27
2023-04-09T23:31:40.997Z,-0.20
2023-04-09T23:34:07.300Z,-0.11
2023-04-09T23:36:33.593Z,-0.15
2023-04-09T23:38:59.930Z,-0.15
2023-04-09T23:41:26.640Z,-0.21
2023-04-09T23:43:53.204Z,-0.25
2023-04-09T23:46:19.775Z,-0.21
2023-04-09T23:48:46.116Z,-0.13
2023-04-09T23:51:19.180Z,0.03
2023-04-09T23:53:47.556Z,-0.61
2023-04-09T23:56:14.336Z,-0.15
2023-04-09T23:58:40.803Z,-0.22
